TimeBST,TemperatureF,Dew PointF,Humidity,Sea Level PressureIn,VisibilityMPH,Wind Direction,Wind SpeedMPH,Gust SpeedMPH,PrecipitationIn,Events,Conditions,WindDirDegrees,DateUTC
12:20 AM,51.8,50.0,94,30.24,4.3,South,2.3,-,N/A,,Unknown,170,2013-07-11 23:20:00
12:50 AM,51.8,50.0,94,30.24,5.0,Calm,Calm,-,N/A,,Unknown,0,2013-07-11 23:50:00
1:20 AM,50.0,48.2,94,30.24,0.7,Calm,Calm,-,N/A,,Mist,0,2013-07-12 00:20:00
1:50 AM,48.2,46.4,93,30.24,-9999.0,Calm,Calm,-,N/A,,Mist,0,2013-07-12 00:50:00
2:20 AM,48.2,48.2,100,30.24,6.2,South,2.3,-,N/A,Fog,Patches of Fog,180,2013-07-12 01:20:00
3:20 AM,46.4,46.4,100,30.24,6.2,Calm,Calm,-,N/A,Fog,Patches of Fog,0,2013-07-12 02:20:00
3:50 AM,48.2,46.4,93,30.24,6.2,Calm,Calm,-,N/A,,Partly Cloudy,0,2013-07-12 02:50:00
4:20 AM,48.2,48.2,100,30.24,6.2,South,2.3,-,N/A,Fog,Shallow Fog,190,2013-07-12 03:20:00
4:50 AM,48.2,48.2,100,30.21,6.2,Calm,Calm,-,N/A,Fog,Partly Cloudy,0,2013-07-12 03:50:00
5:20 AM,51.8,51.8,100,30.21,6.2,SW,4.6,-,N/A,,Partly Cloudy,230,2013-07-12 04:20:00
5:50 AM,55.4,55.4,100,30.21,6.2,SSW,4.6,-,N/A,,Partly Cloudy,210,2013-07-12 04:50:00
6:20 AM,57.2,57.2,100,30.21,-9999.0,SW,4.6,-,N/A,,Clear,220,2013-07-12 05:20:00
6:50 AM,59.0,59.0,100,30.21,-9999.0,SW,5.8,-,N/A,,Clear,220,2013-07-12 05:50:00
7:20 AM,60.8,59.0,94,30.21,6.2,SW,9.2,-,N/A,,Partly Cloudy,230,2013-07-12 06:20:00
7:50 AM,62.6,60.8,94,30.21,6.2,WSW,10.4,-,N/A,,Partly Cloudy,240,2013-07-12 06:50:00
8:20 AM,66.2,60.8,83,30.21,6.2,SW,10.4,-,N/A,,Partly Cloudy,230,2013-07-12 07:20:00
8:50 AM,66.2,60.8,83,30.21,-9999.0,WSW,10.4,-,N/A,,Clear,240,2013-07-12 07:50:00
9:20 AM,68.0,60.8,78,30.21,-9999.0,WSW,8.1,-,N/A,,Clear,250,2013-07-12 08:20:00
9:50 AM,69.8,60.8,73,30.21,-9999.0,WSW,10.4,-,N/A,,Clear,240,2013-07-12 08:50:00
10:20 AM,69.8,60.8,73,30.21,-9999.0,WSW,9.2,-,N/A,,Clear,240,2013-07-12 09:20:00
10:50 AM,73.4,59.0,61,30.21,6.2,WSW,8.1,-,N/A,,Partly Cloudy,250,2013-07-12 09:50:00
11:20 AM,73.4,59.0,61,30.21,6.2,WSW,8.1,-,N/A,,Partly Cloudy,240,2013-07-12 10:20:00
11:50 AM,77.0,59.0,54,30.21,6.2,WSW,9.2,-,N/A,,Partly Cloudy,250,2013-07-12 10:50:00
12:20 PM,77.0,55.4,47,30.21,6.2,WSW,9.2,-,N/A,,Partly Cloudy,240,2013-07-12 11:20:00
12:50 PM,78.8,57.2,47,30.21,6.2,WSW,8.1,-,N/A,,Partly Cloudy,240,2013-07-12 11:50:00
1:20 PM,78.8,57.2,47,30.21,6.2,West,10.4,-,N/A,,Partly Cloudy,260,2013-07-12 12:20:00
1:50 PM,78.8,59.0,51,30.21,6.2,WSW,8.1,-,N/A,,Partly Cloudy,250,2013-07-12 12:50:00
2:20 PM,78.8,59.0,51,30.21,6.2,West,5.8,-,N/A,,Partly Cloudy,280,2013-07-12 13:20:00
2:50 PM,78.8,59.0,51,30.18,6.2,West,8.1,-,N/A,,Partly Cloudy,280,2013-07-12 13:50:00
3:20 PM,78.8,60.8,54,30.18,6.2,WNW,8.1,-,N/A,,Partly Cloudy,300,2013-07-12 14:20:00
3:50 PM,78.8,59.0,51,30.18,6.2,NW,5.8,-,N/A,,Partly Cloudy,310,2013-07-12 14:50:00
4:20 PM,77.0,59.0,54,30.18,6.2,West,4.6,-,N/A,,Partly Cloudy,280,2013-07-12 15:20:00
4:50 PM,78.8,59.0,51,30.18,6.2,West,8.1,-,N/A,,Partly Cloudy,270,2013-07-12 15:50:00
5:20 PM,77.0,53.6,44,30.18,6.2,West,6.9,-,N/A,,Partly Cloudy,270,2013-07-12 16:20:00
5:50 PM,75.2,59.0,57,30.18,6.2,West,6.9,-,N/A,,Partly Cloudy,260,2013-07-12 16:50:00
6:20 PM,75.2,53.6,47,30.18,6.2,West,9.2,-,N/A,,Partly Cloudy,260,2013-07-12 17:20:00
6:50 PM,75.2,57.2,53,30.18,6.2,West,9.2,-,N/A,,Scattered Clouds,260,2013-07-12 17:50:00
7:20 PM,75.2,59.0,57,30.18,6.2,West,10.4,-,N/A,,Scattered Clouds,270,2013-07-12 18:20:00
7:50 PM,73.4,57.2,57,30.18,6.2,WSW,12.7,-,N/A,,Partly Cloudy,250,2013-07-12 18:50:00
8:20 PM,71.6,57.2,60,30.18,6.2,WSW,11.5,-,N/A,,Partly Cloudy,250,2013-07-12 19:20:00
8:50 PM,69.8,57.2,64,30.21,6.2,WSW,11.5,-,N/A,,Partly Cloudy,250,2013-07-12 19:50:00
9:20 PM,68.0,57.2,68,30.21,-9999.0,North,-9999.0,-,N/A,,Partly Cloudy,0,2013-07-12 20:20:00